Terminal Aerodrome Forecast
Issued by NWS

Home | Current Version | Previous Version | Text Only | Print | Product List | Glossary On
Versions: 1 2 3 4 5 6 7 8 9 10 11 12 13 14 15 16 17 18 19 20 21 22
000
FTUS46 KSTO 191739
TAFSMF
TAF
KSMF 191739Z 1918/2018 16012KT P6SM -SHRA SCT020 BKN040
      TEMPO 1919/1923 4SM TSRA BKN020CB
     FM200600 15020G30KT P6SM -RA OVC015=

USA.gov is the U.S. government's official web portal to all federal, state and local government web resources and services.